X  Sluiten METAR luchtvaart weer gegevens      EHKD De Kooy Airport
Temperatuur
12°C Temperatuur
11°C Dauwpunt
94% Vochtigheid



Wind
12 MPH
19 KM/U
5 M/S
10 KTS



180°
Z
Huidig weer

Wat bewolking Wat bewolking
Luchtdruk 1002.03 (hPa) - 29.59 (inHg)
Zicht 6 (mijl) - 9.7 (km)
Vliegveld
Vliegveld code EHKD

Locatie : De Kooy Airport
Afstand: 34 (mi)

Metar:
EHKD 160325Z AUTO 18010KT 9999 FEW015CB SCT016 BKN023 12/11 Q1002 REDZ WHT

Tijd: 16-06-2024 05:25 CEST